Cerritos, California
Current Conditions -  °F | °C
As of 4:53 AM on Friday 31 Oct 2014 (Local Time) from KFUL Reporting Station
Overcast Overcast  
Wind Chill: 60°   Ceiling: 2200
Heat Index: 60°   Visibility: 10mi
Dew Point: 56°   Wind: 0mph
Humidity: 86%   Direction: NA
Pressure: 29.94"   Gusts: NA
Location:  33.87°N, 118.06°W
Report Text: KFUL 311153Z 00000KT 10SM OVC022 16/13 A2994 RMK AO2 SLP137 T01560133 10178 20150 58005 $
Loading
Personal Weather Stations






























Interactive Weather Map
Tropical Storm Tracking
New forecast layout! Learn more

10-Day Weather Forecast

Advertisements
Track Severe Weather on mobile